Time;durP1;ratioP1;P1;durP2;ratioP2;P2;SDS_P1;SDS_P2;PMS_P1;PMS_P2;Temp;Humidity;BMP_temperature;BMP_pressure;BME280_temperature;BME280_humidity;BME280_pressure;Samples;Min_cycle;Max_cycle;Signal;HPM_P1;HPM_P2
2023/09/25 00:00:27;;;;;;;;;;;;;;;22.04;29.46;98138.88;5054135;28;967;-78
2023/09/25 00:02:53;;;;;;;;;;;;;;;21.97;29.37;98136.25;5037310;28;1023;-77
2023/09/25 00:05:18;;;;;;;;;;;;;;;22.00;29.51;98143.84;5037680;28;1910;-77
2023/09/25 00:07:44;;;;;;;;;;;;;;;22.06;29.57;98142.03;5037595;28;1098;-77
2023/09/25 00:10:10;;;;;;;;;;;;;;;22.02;29.59;98147.81;5021080;28;975;-78
2023/09/25 00:12:35;;;;;;;;;;;;;;;22.09;29.63;98149.66;5021202;28;1184;-77
2023/09/25 00:15:01;;;;;;;;;;;;;;;21.87;29.77;98151.47;5037400;28;970;-77
2023/09/25 00:17:27;;;;;;;;;;;;;;;21.88;29.92;98144.56;5037825;28;1221;-77
2023/09/25 00:19:52;;;;;;;;;;;;;;;21.86;29.88;98144.97;5053945;28;1049;-77
2023/09/25 00:22:18;;;;;;;;;;;;;;;21.81;29.72;98149.16;5054098;28;929;-77
2023/09/25 00:24:43;;;;;;;;;;;;;;;22.09;29.57;98150.47;5053972;28;1218;-77
2023/09/25 00:27:09;;;;;;;;;;;;;;;22.04;29.49;98145.34;5054024;28;1918;-77
2023/09/25 00:29:35;;;;;;;;;;;;;;;22.00;29.70;98138.16;5037313;28;1123;-77
2023/09/25 00:32:00;;;;;;;;;;;;;;;22.06;29.55;98147.72;5049164;28;1483;-78
2023/09/25 00:34:26;;;;;;;;;;;;;;;21.97;29.55;98144.75;5058562;28;1114;-77
2023/09/25 00:36:52;;;;;;;;;;;;;;;22.19;29.22;98142.97;5058484;28;1134;-78
2023/09/25 00:39:17;;;;;;;;;;;;;;;21.98;29.60;98144.28;5058347;28;1113;-77
2023/09/25 00:41:43;;;;;;;;;;;;;;;21.94;29.65;98139.94;5075264;28;878;-77
2023/09/25 00:44:08;;;;;;;;;;;;;;;22.01;29.80;98145.41;5076987;28;1271;-78
2023/09/25 00:46:34;;;;;;;;;;;;;;;21.96;29.83;98148.78;5093974;28;1926;-77
2023/09/25 00:49:00;;;;;;;;;;;;;;;21.95;29.60;98141.53;5077108;28;1133;-77
2023/09/25 00:51:25;;;;;;;;;;;;;;;21.77;30.14;98142.00;5077527;28;939;-78
2023/09/25 00:53:51;;;;;;;;;;;;;;;22.00;29.71;98138.16;5076952;28;1118;-77
2023/09/25 00:56:17;;;;;;;;;;;;;;;22.39;29.13;98144.88;5077230;28;1214;-77
2023/09/25 00:58:42;;;;;;;;;;;;;;;22.10;29.67;98137.09;5060367;28;1746;-77
2023/09/25 01:01:08;;;;;;;;;;;;;;;21.96;29.76;98145.94;5060371;28;1067;-77
2023/09/25 01:03:34;;;;;;;;;;;;;;;21.95;29.79;98148.00;5043504;28;1240;-77
2023/09/25 01:05:59;;;;;;;;;;;;;;;21.95;29.89;98144.38;5060217;28;1905;-78
2023/09/25 01:08:25;;;;;;;;;;;;;;;22.03;29.76;98145.78;5078993;28;963;-77
2023/09/25 01:10:50;;;;;;;;;;;;;;;22.10;29.59;98148.41;5080784;28;1210;-77
2023/09/25 01:13:16;;;;;;;;;;;;;;;22.02;29.69;98147.00;5097732;28;1032;-78
2023/09/25 01:15:41;;;;;;;;;;;;;;;22.45;28.87;98143.06;5084361;28;1023;-77
2023/09/25 01:18:10;;;;;;;;;;;;;;;22.04;29.61;98148.16;5079555;28;923;-77
2023/09/25 01:20:36;;;;;;;;;;;;;;;21.98;29.66;98152.00;5078494;28;1256;-77
2023/09/25 01:23:02;;;;;;;;;;;;;;;22.15;29.28;98133.75;5061837;28;1121;-77
2023/09/25 01:25:27;;;;;;;;;;;;;;;22.11;29.22;98144.38;5078291;28;1906;-77
2023/09/25 01:27:54;;;;;;;;;;;;;;;22.12;29.42;98136.66;5079506;28;948;-77
2023/09/25 01:30:20;;;;;;;;;;;;;;;22.20;29.17;98147.38;5040128;28;1435;-77
2023/09/25 01:32:46;;;;;;;;;;;;;;;22.05;29.29;98137.63;5040338;28;1189;-77
2023/09/25 01:35:15;;;;;;;;;;;;;;;21.98;29.35;98152.00;5023794;28;1225;-77
2023/09/25 01:37:41;;;;;;;;;;;;;;;21.93;29.61;98144.03;5040489;28;914;-77
2023/09/25 01:40:25;;;;;;;;;;;;;;;21.85;29.76;98147.03;5023624;28;1497;-77
2023/09/25 01:42:51;;;;;;;;;;;;;;;22.04;29.44;98153.03;5019937;28;973;-77
2023/09/25 01:45:17;;;;;;;;;;;;;;;22.01;29.58;98151.88;5003807;28;1967;-77
2023/09/25 01:47:48;;;;;;;;;;;;;;;21.84;29.69;98153.94;5020502;28;937;-77
2023/09/25 01:50:14;;;;;;;;;;;;;;;21.74;29.81;98149.31;5004351;28;1028;-77
2023/09/25 01:52:40;;;;;;;;;;;;;;;22.15;29.21;98144.28;5020232;28;1043;-77
2023/09/25 01:55:05;;;;;;;;;;;;;;;22.06;29.57;98148.50;5003766;28;1161;-77
2023/09/25 01:57:32;;;;;;;;;;;;;;;22.04;29.43;98150.22;4987368;28;1082;-78
2023/09/25 01:59:57;;;;;;;;;;;;;;;21.93;29.66;98146.84;5003888;28;1225;-77
2023/09/25 02:02:24;;;;;;;;;;;;;;;22.13;29.35;98153.25;5022390;28;1110;-77
2023/09/25 02:04:49;;;;;;;;;;;;;;;22.03;29.76;98142.97;5039687;28;1010;-77
2023/09/25 02:07:17;;;;;;;;;;;;;;;21.86;29.78;98144.97;5023170;28;1967;-77
2023/09/25 02:09:45;;;;;;;;;;;;;;;21.85;29.99;98143.41;5056407;28;990;-77
2023/09/25 02:12:10;;;;;;;;;;;;;;;22.06;29.77;98147.72;5056339;28;964;-77
2023/09/25 02:14:36;;;;;;;;;;;;;;;22.10;29.42;98149.25;5056139;28;933;-77
2023/09/25 02:17:01;;;;;;;;;;;;;;;22.00;29.58;98143.84;5039756;28;1116;-77
2023/09/25 02:19:28;;;;;;;;;;;;;;;22.15;29.67;98144.28;5047744;28;1125;-77
2023/09/25 02:21:54;;;;;;;;;;;;;;;22.16;29.30;98138.16;5060741;28;1129;-77
2023/09/25 02:24:19;;;;;;;;;;;;;;;22.17;29.46;98141.78;5078152;28;1205;-77
2023/09/25 02:26:45;;;;;;;;;;;;;;;22.09;29.62;98129.84;5077159;28;1902;-77
2023/09/25 02:29:11;;;;;;;;;;;;;;;22.03;29.89;98137.28;5060857;28;863;-77
2023/09/25 02:31:36;;;;;;;;;;;;;;;22.09;29.93;98152.50;5060507;28;1088;-77
2023/09/25 02:34:02;;;;;;;;;;;;;;;22.07;30.14;98143.63;5077061;28;1104;-77
2023/09/25 02:36:27;;;;;;;;;;;;;;;22.22;30.03;98133.53;5060384;28;1185;-77
2023/09/25 02:38:53;;;;;;;;;;;;;;;22.03;30.53;98142.97;5060290;28;1114;-77
2023/09/25 02:41:18;;;;;;;;;;;;;;;22.19;29.93;98134.44;5078839;28;1208;-77
2023/09/25 02:43:44;;;;;;;;;;;;;;;22.20;30.24;98129.56;5078908;28;900;-77
2023/09/25 02:46:11;;;;;;;;;;;;;;;22.08;30.38;98133.91;5055089;28;1955;-77
2023/09/25 02:48:36;;;;;;;;;;;;;;;22.22;30.28;98133.53;5038917;28;1206;-77
2023/09/25 02:51:02;;;;;;;;;;;;;;;21.90;30.91;98139.22;5038800;28;1018;-77
2023/09/25 02:53:27;;;;;;;;;;;;;;;21.83;30.64;98135.34;5055870;28;1075;-77
2023/09/25 02:55:53;;;;;;;;;;;;;;;22.00;30.46;98132.50;5021870;28;1032;-77
2023/09/25 02:58:18;;;;;;;;;;;;;;;22.21;30.49;98131.97;5022200;28;953;-77
2023/09/25 03:00:45;;;;;;;;;;;;;;;22.06;30.76;98130.72;5038618;28;1102;-77
2023/09/25 03:03:10;;;;;;;;;;;;;;;22.00;30.87;98138.97;5022239;28;1124;-77
2023/09/25 03:05:36;;;;;;;;;;;;;;;21.97;31.00;98139.88;5038603;28;1906;-77
2023/09/25 03:08:02;;;;;;;;;;;;;;;22.08;30.59;98133.91;5039042;28;1081;-77
2023/09/25 03:10:28;;;;;;;;;;;;;;;22.07;30.54;98126.63;5038576;28;1054;-77
2023/09/25 03:12:53;;;;;;;;;;;;;;;22.07;30.74;98133.13;5040053;28;952;-77
2023/09/25 03:15:19;;;;;;;;;;;;;;;22.25;30.72;98132.66;5018226;28;1021;-77
2023/09/25 03:17:44;;;;;;;;;;;;;;;22.12;30.87;98137.47;5088369;28;1259;-77
2023/09/25 03:20:14;;;;;;;;;;;;;;;22.03;30.67;98128.78;5115470;28;992;-77
2023/09/25 03:22:40;;;;;;;;;;;;;;;21.99;31.13;98125.25;5115302;28;915;-77
2023/09/25 03:25:06;;;;;;;;;;;;;;;22.04;31.07;98136.03;5115311;28;1910;-77
2023/09/25 03:27:32;;;;;;;;;;;;;;;21.88;31.34;98136.06;5115465;28;948;-77
2023/09/25 03:29:57;;;;;;;;;;;;;;;22.03;31.19;98129.56;5097820;28;1212;-77
2023/09/25 03:32:23;;;;;;;;;;;;;;;22.10;31.01;98131.41;5097905;28;1386;-77
2023/09/25 03:34:48;;;;;;;;;;;;;;;22.26;30.83;98130.63;5114999;28;1014;-77
2023/09/25 03:37:14;;;;;;;;;;;;;;;22.04;31.24;98136.03;5115235;28;1030;-77
2023/09/25 03:39:39;;;;;;;;;;;;;;;21.98;31.42;98132.16;5098142;28;1194;-77
2023/09/25 03:42:05;;;;;;;;;;;;;;;21.97;31.27;98139.06;5114793;28;935;-77
2023/09/25 03:44:31;;;;;;;;;;;;;;;22.33;30.92;98134.06;5097892;28;1023;-77
2023/09/25 03:46:56;;;;;;;;;;;;;;;22.16;31.05;98135.34;5098233;28;1905;-77
2023/09/25 03:49:22;;;;;;;;;;;;;;;22.21;31.03;98137.63;5052951;28;1117;-77
2023/09/25 03:51:47;;;;;;;;;;;;;;;22.14;30.95;98137.81;5038835;28;1061;-77
2023/09/25 03:54:13;;;;;;;;;;;;;;;22.23;30.83;98143.66;5071817;28;1137;-77
2023/09/25 03:56:39;;;;;;;;;;;;;;;22.17;31.05;98142.59;5072168;28;1114;-77
2023/09/25 03:59:05;;;;;;;;;;;;;;;22.23;31.12;98145.69;5056509;28;921;-77
2023/09/25 04:01:31;;;;;;;;;;;;;;;22.18;31.09;98141.38;5088609;28;921;-77
2023/09/25 04:03:56;;;;;;;;;;;;;;;22.45;30.65;98140.25;5098886;28;993;-77
2023/09/25 04:06:22;;;;;;;;;;;;;;;22.18;31.14;98137.75;5058750;28;1993;-77
2023/09/25 04:08:47;;;;;;;;;;;;;;;21.98;31.34;98140.66;5058270;28;1205;-76
2023/09/25 04:11:14;;;;;;;;;;;;;;;22.12;31.35;98137.47;5057707;28;1141;-77
2023/09/25 04:13:40;;;;;;;;;;;;;;;22.18;31.14;98149.06;5075037;28;918;-78
2023/09/25 04:16:06;;;;;;;;;;;;;;;22.42;30.57;98146.78;5042274;28;1229;-77
2023/09/25 04:18:31;;;;;;;;;;;;;;;22.51;30.48;98139.22;5058129;28;873;-77
2023/09/25 04:21:02;;;;;;;;;;;;;;;22.21;30.90;98143.28;5042044;28;1168;-77
2023/09/25 04:23:28;;;;;;;;;;;;;;;22.39;30.63;98156.22;5090845;28;1374;-77
2023/09/25 04:26:00;;;;;;;;;;;;;;;22.21;31.05;98148.16;5040804;28;1898;-77
2023/09/25 04:28:29;;;;;;;;;;;;;;;22.23;30.92;98157.84;5073732;28;982;-77
2023/09/25 04:30:57;;;;;;;;;;;;;;;22.26;30.99;98156.94;5074151;28;964;-77
2023/09/25 04:33:24;;;;;;;;;;;;;;;22.24;31.04;98159.41;5040679;28;1032;-77
2023/09/25 04:35:52;;;;;;;;;;;;;;;22.16;31.30;98169.34;5040613;28;999;-77
2023/09/25 04:38:18;;;;;;;;;;;;;;;22.15;31.14;98167.75;5057065;28;1115;-77
2023/09/25 04:40:46;;;;;;;;;;;;;;;22.20;31.27;98164.38;5024116;28;1213;-77
2023/09/25 04:43:12;;;;;;;;;;;;;;;22.14;31.24;98165.38;5061099;28;1074;-78
2023/09/25 04:45:38;;;;;;;;;;;;;;;22.35;30.79;98171.25;5041127;28;1898;-77
2023/09/25 04:48:03;;;;;;;;;;;;;;;22.34;30.62;98169.69;5057880;28;1423;-77
2023/09/25 04:50:29;;;;;;;;;;;;;;;22.12;31.27;98167.84;5040615;28;961;-77
2023/09/25 04:52:55;;;;;;;;;;;;;;;22.15;31.12;98173.41;5058199;28;973;-77
2023/09/25 04:55:21;;;;;;;;;;;;;;;22.06;31.41;98176.06;5057617;28;1077;-77
2023/09/25 04:57:46;;;;;;;;;;;;;;;22.31;30.87;98162.06;5074307;28;1106;-77
2023/09/25 05:00:21;;;;;;;;;;;;;;;22.30;30.72;98180.31;5040764;28;1075;-77
2023/09/25 05:02:47;;;;;;;;;;;;;;;22.18;30.64;98172.53;5057277;28;980;-77
2023/09/25 05:05:14;;;;;;;;;;;;;;;22.47;30.10;98171.75;5057043;28;2072;-77
2023/09/25 05:07:42;;;;;;;;;;;;;;;22.37;30.24;98179.31;5057649;28;1076;-77
2023/09/25 05:10:09;;;;;;;;;;;;;;;22.23;30.53;98174.84;5040597;28;1222;-77
2023/09/25 05:12:35;;;;;;;;;;;;;;;22.11;30.38;98178.38;5057545;28;926;-77
2023/09/25 05:15:01;;;;;;;;;;;;;;;22.38;30.20;98185.78;5057419;28;983;-78
2023/09/25 05:17:26;;;;;;;;;;;;;;;22.36;30.03;98178.53;5091002;28;1130;-77
2023/09/25 05:19:51;;;;;;;;;;;;;;;22.23;30.08;98186.19;5097264;28;1012;-77
2023/09/25 05:22:17;;;;;;;;;;;;;;;22.20;30.27;98187.06;5097621;28;1121;-78
2023/09/25 05:24:42;;;;;;;;;;;;;;;22.12;30.35;98179.97;5063768;28;1112;-78
2023/09/25 05:27:08;;;;;;;;;;;;;;;22.01;30.77;98185.09;5080203;28;1980;-77
2023/09/25 05:29:34;;;;;;;;;;;;;;;22.11;30.60;98192.53;5063742;28;1598;-78
2023/09/25 05:32:04;;;;;;;;;;;;;;;22.02;30.64;98186.66;5078167;28;1474;-78
2023/09/25 05:34:30;;;;;;;;;;;;;;;22.19;30.45;98188.31;5077745;28;887;-77
2023/09/25 05:36:56;;;;;;;;;;;;;;;22.06;30.51;98176.84;5078113;28;1009;-78
2023/09/25 05:39:24;;;;;;;;;;;;;;;22.16;30.62;98179.88;5077708;28;879;-77
2023/09/25 05:41:50;;;;;;;;;;;;;;;22.23;30.33;98174.84;5077527;28;1254;-78
2023/09/25 05:44:15;;;;;;;;;;;;;;;22.25;30.45;98183.69;5078898;28;1500;-78
2023/09/25 05:46:41;;;;;;;;;;;;;;;22.19;30.60;98185.47;5085682;28;1921;-78
2023/09/25 05:49:07;;;;;;;;;;;;;;;22.17;30.46;98190.75;5077744;28;1682;-78
2023/09/25 05:51:32;;;;;;;;;;;;;;;21.96;30.76;98182.78;5058354;28;1529;-78
2023/09/25 05:53:58;;;;;;;;;;;;;;;22.15;30.55;98196.09;5077015;28;1524;-78
2023/09/25 05:56:23;;;;;;;;;;;;;;;22.31;30.26;98203.78;5077551;28;1560;-78
2023/09/25 05:58:50;;;;;;;;;;;;;;;22.23;30.49;98197.50;5111799;28;954;-78
2023/09/25 06:01:15;;;;;;;;;;;;;;;22.13;30.59;98204.25;5094418;28;1196;-78
2023/09/25 06:03:41;;;;;;;;;;;;;;;22.16;30.45;98196.88;5078382;28;1187;-78
2023/09/25 06:06:06;;;;;;;;;;;;;;;21.97;30.72;98212.72;5078633;28;1975;-78
2023/09/25 06:08:33;;;;;;;;;;;;;;;22.30;30.21;98210.69;5078908;28;963;-78
2023/09/25 06:11:02;;;;;;;;;;;;;;;22.40;30.16;98201.13;5078897;28;938;-78
2023/09/25 06:13:30;;;;;;;;;;;;;;;22.34;30.08;98202.91;5094126;28;930;-78
2023/09/25 06:15:56;;;;;;;;;;;;;;;22.09;30.63;98209.97;5078183;28;897;-78
2023/09/25 06:18:21;;;;;;;;;;;;;;;22.28;30.35;98211.16;5111183;28;884;-78
2023/09/25 06:20:48;;;;;;;;;;;;;;;22.22;30.31;98218.56;5110934;28;935;-78
2023/09/25 06:23:14;;;;;;;;;;;;;;;22.07;30.62;98220.13;5076649;28;902;-78
2023/09/25 06:25:44;;;;;;;;;;;;;;;22.25;30.31;98220.53;5110978;28;1898;-78
2023/09/25 06:28:11;;;;;;;;;;;;;;;22.23;30.33;98225.84;5110554;28;880;-78
2023/09/25 06:30:37;;;;;;;;;;;;;;;22.20;30.38;98226.72;5110431;28;1061;-78
2023/09/25 06:33:02;;;;;;;;;;;;;;;22.05;30.56;98222.63;5094079;28;980;-78
2023/09/25 06:35:28;;;;;;;;;;;;;;;22.24;30.08;98238.78;5094036;28;929;-78
2023/09/25 06:37:54;;;;;;;;;;;;;;;22.30;30.33;98231.34;5093925;28;1192;-78
2023/09/25 06:40:19;;;;;;;;;;;;;;;22.24;30.57;98230.28;5077697;28;938;-78
2023/09/25 06:42:45;;;;;;;;;;;;;;;22.22;30.36;98229.13;5093629;28;953;-78
2023/09/25 06:45:10;;;;;;;;;;;;;;;22.30;30.41;98231.34;5093431;28;1905;-78
2023/09/25 06:47:36;;;;;;;;;;;;;;;21.97;31.16;98230.53;5110782;28;876;-78
2023/09/25 06:50:02;;;;;;;;;;;;;;;21.96;31.14;98233.78;5109944;28;988;-78
2023/09/25 06:52:28;;;;;;;;;;;;;;;22.29;30.57;98228.94;5110368;28;921;-78
2023/09/25 06:54:53;;;;;;;;;;;;;;;22.13;30.90;98229.75;5093471;28;1007;-78
2023/09/25 06:57:19;;;;;;;;;;;;;;;22.05;30.93;98226.25;5110323;28;1098;-78
2023/09/25 06:59:45;;;;;;;;;;;;;;;22.14;30.89;98231.34;5112008;28;1039;-78
2023/09/25 07:02:10;;;;;;;;;;;;;;;22.15;30.93;98234.97;5095543;28;1009;-78
2023/09/25 07:04:37;;;;;;;;;;;;;;;22.36;30.46;98234.44;5094895;28;893;-78
2023/09/25 07:07:03;;;;;;;;;;;;;;;22.55;29.96;98241.22;5078090;28;1980;-78
2023/09/25 07:09:28;;;;;;;;;;;;;;;22.29;30.53;98241.09;5061685;28;1572;-78
2023/09/25 07:11:54;;;;;;;;;;;;;;;22.44;30.17;98235.06;5077944;28;1322;-78
2023/09/25 07:14:19;;;;;;;;;;;;;;;22.45;30.49;98245.16;5095140;28;1130;-78
2023/09/25 07:16:45;;;;;;;;;;;;;;;22.50;30.35;98248.25;5078828;28;1097;-78
2023/09/25 07:19:11;;;;;;;;;;;;;;;22.56;30.14;98242.81;5078759;28;1107;-78
2023/09/25 07:21:37;;;;;;;;;;;;;;;22.36;30.73;98245.75;5078621;28;952;-78
2023/09/25 07:24:02;;;;;;;;;;;;;;;22.38;30.97;98248.94;5095228;28;1055;-78
2023/09/25 07:26:28;;;;;;;;;;;;;;;22.29;31.47;98246.75;5078123;28;1910;-78
2023/09/25 07:28:53;;;;;;;;;;;;;;;22.35;31.22;98259.16;5061182;28;976;-78
2023/09/25 07:31:19;;;;;;;;;;;;;;;22.46;31.40;98258.88;5075590;28;1056;-78
2023/09/25 07:33:45;;;;;;;;;;;;;;;22.45;31.55;98253.66;5077842;28;1287;-78
2023/09/25 07:36:11;;;;;;;;;;;;;;;22.31;31.82;98255.59;5061411;28;1080;-78
2023/09/25 07:38:36;;;;;;;;;;;;;;;22.44;31.39;98252.06;5094053;28;1590;-78
2023/09/25 07:41:02;;;;;;;;;;;;;;;22.50;31.12;98270.13;5077626;28;1634;-78
2023/09/25 07:43:29;;;;;;;;;;;;;;;22.33;31.36;98258.81;5077621;28;1545;-78
2023/09/25 07:45:55;;;;;;;;;;;;;;;22.19;31.51;98264.81;5077868;28;1922;-78
2023/09/25 07:48:20;;;;;;;;;;;;;;;22.30;31.41;98265.34;5061591;28;1560;-78
2023/09/25 07:50:46;;;;;;;;;;;;;;;22.50;30.99;98255.94;5074300;28;1034;-78
2023/09/25 07:53:14;;;;;;;;;;;;;;;22.34;31.18;98270.94;5074282;28;1110;-78
2023/09/25 07:55:41;;;;;;;;;;;;;;;22.48;31.04;98264.09;5073859;28;1038;-78
2023/09/25 07:58:06;;;;;;;;;;;;;;;22.33;31.18;98258.00;5074492;28;940;-78
2023/09/25 08:00:39;;;;;;;;;;;;;;;22.50;30.88;98270.91;5074522;28;1153;-78
2023/09/25 08:03:06;;;;;;;;;;;;;;;22.33;31.19;98260.84;5054316;28;1401;-78
2023/09/25 08:05:31;;;;;;;;;;;;;;;22.29;31.40;98268.63;5021049;28;1910;-78
2023/09/25 08:07:57;;;;;;;;;;;;;;;22.50;31.12;98261.63;5017680;28;1971;-78
2023/09/25 08:10:23;;;;;;;;;;;;;;;22.53;30.71;98260.72;5014242;28;1702;-78
2023/09/25 08:12:48;;;;;;;;;;;;;;;22.43;30.82;98273.13;4997813;28;1027;-78
2023/09/25 08:15:14;;;;;;;;;;;;;;;22.44;30.84;98269.06;4998224;28;1078;-78
2023/09/25 08:17:43;;;;;;;;;;;;;;;22.38;31.03;98265.94;4997736;28;956;-78
2023/09/25 08:20:20;;;;;;;;;;;;;;;22.49;31.02;98265.72;4997975;28;1035;-78
2023/09/25 08:22:46;;;;;;;;;;;;;;;22.56;30.72;98257.78;5035535;28;970;-78
2023/09/25 08:25:11;;;;;;;;;;;;;;;22.38;30.99;98270.81;5020545;28;1988;-78
2023/09/25 08:27:39;;;;;;;;;;;;;;;22.42;31.02;98260.19;5037429;28;1075;-78
2023/09/25 08:30:04;;;;;;;;;;;;;;;22.39;30.99;98261.09;5020558;28;1325;-78
2023/09/25 08:32:31;;;;;;;;;;;;;;;22.53;30.78;98255.84;5036993;28;1198;-78
2023/09/25 08:34:56;;;;;;;;;;;;;;;22.27;31.32;98254.88;5051713;28;1104;-78
2023/09/25 08:37:22;;;;;;;;;;;;;;;22.42;31.11;98260.19;5054425;28;989;-78
2023/09/25 08:39:47;;;;;;;;;;;;;;;22.56;30.78;98257.00;5054480;28;1219;-78
2023/09/25 08:42:13;;;;;;;;;;;;;;;22.51;31.07;98247.00;5054881;28;1069;-78
2023/09/25 08:44:39;;;;;;;;;;;;;;;22.52;31.02;98253.44;5053823;28;955;-78
2023/09/25 08:47:04;;;;;;;;;;;;;;;22.45;30.83;98259.31;5054586;28;1906;-78
2023/09/25 08:49:30;;;;;;;;;;;;;;;22.28;31.41;98262.19;5054638;28;971;-78
2023/09/25 08:51:55;;;;;;;;;;;;;;;22.57;30.80;98250.06;5054559;28;977;-78
2023/09/25 08:54:22;;;;;;;;;;;;;;;22.38;31.05;98242.47;5054650;28;967;-78
2023/09/25 08:57:15;;;;;;;;;;;;;;;22.47;30.79;98254.78;5054212;28;918;-78
2023/09/25 08:59:41;;;;;;;;;;;;;;;22.32;31.20;98251.53;5055605;28;916;-78
2023/09/25 09:02:08;;;;;;;;;;;;;;;22.52;31.06;98259.13;5056391;28;1055;-78
2023/09/25 09:04:36;;;;;;;;;;;;;;;22.42;30.85;98237.50;5056901;28;989;-78
2023/09/25 09:07:05;;;;;;;;;;;;;;;22.52;30.60;98273.31;5056342;28;1898;-78
2023/09/25 09:09:31;;;;;;;;;;;;;;;22.40;31.09;98245.69;5073381;28;1114;-78
2023/09/25 09:11:57;;;;;;;;;;;;;;;22.48;30.83;98255.56;5039619;28;1243;-78
2023/09/25 09:14:36;;;;;;;;;;;;;;;22.74;30.38;98254.50;5039905;28;1077;-78
2023/09/25 09:17:04;;;;;;;;;;;;;;;22.66;30.53;98255.91;5056221;28;1038;-78
2023/09/25 09:19:33;;;;;;;;;;;;;;;22.44;31.01;98252.06;5056097;28;1061;-78
2023/09/25 09:22:04;;;;;;;;;;;;;;;22.54;30.58;98256.66;5039374;28;1040;-78
2023/09/25 09:24:31;;;;;;;;;;;;;;;22.29;31.23;98255.25;5040028;28;1579;-78
2023/09/25 09:26:57;;;;;;;;;;;;;;;22.41;30.73;98241.59;5066392;28;1909;-78
2023/09/25 09:29:23;;;;;;;;;;;;;;;22.56;30.57;98259.84;5050146;28;1568;-78
2023/09/25 09:31:52;;;;;;;;;;;;;;;22.62;30.53;98263.72;5068332;28;1698;-78
2023/09/25 09:34:20;;;;;;;;;;;;;;;22.67;30.47;98256.72;5077362;28;1504;-78
2023/09/25 09:36:51;;;;;;;;;;;;;;;22.45;30.68;98253.66;5061104;28;1540;-76
2023/09/25 09:39:18;;;;;;;;;;;;;;;22.59;30.52;98254.06;5114286;28;1292;-77
2023/09/25 09:41:44;;;;;;;;;;;;;;;22.73;30.26;98241.53;5083132;28;935;-78
2023/09/25 09:44:09;;;;;;;;;;;;;;;22.54;30.29;98251.78;5083302;28;1620;-77
2023/09/25 09:46:35;;;;;;;;;;;;;;;22.43;30.61;98245.56;5117030;28;1977;-77
2023/09/25 09:49:00;;;;;;;;;;;;;;;22.40;30.71;98251.34;5099972;28;1216;-77
2023/09/25 09:51:26;;;;;;;;;;;;;;;22.43;30.84;98256.91;5100342;28;1157;-77
2023/09/25 09:53:52;;;;;;;;;;;;;;;22.34;30.96;98259.59;5083061;28;1431;-77
2023/09/25 09:56:20;;;;;;;;;;;;;;;22.68;30.24;98253.41;5083443;28;1116;-77
2023/09/25 09:58:46;;;;;;;;;;;;;;;22.41;30.64;98252.94;5083108;28;963;-77
2023/09/25 10:01:12;;;;;;;;;;;;;;;22.26;30.79;98253.28;5082888;28;928;-77
2023/09/25 10:03:37;;;;;;;;;;;;;;;22.30;30.96;98264.56;5099954;28;1213;-76
2023/09/25 10:06:03;;;;;;;;;;;;;;;22.35;30.70;98247.81;5116670;28;1906;-77
2023/09/25 10:08:29;;;;;;;;;;;;;;;22.49;30.60;98257.19;5099967;28;941;-77
2023/09/25 10:10:54;;;;;;;;;;;;;;;22.36;30.72;98263.56;5081088;28;984;-77
2023/09/25 10:13:26;;;;;;;;;;;;;;;22.45;30.47;98253.66;5083257;28;914;-77
2023/09/25 10:15:53;;;;;;;;;;;;;;;22.46;30.34;98249.56;5103323;28;1870;-77
2023/09/25 10:18:22;;;;;;;;;;;;;;;22.44;30.33;98252.84;5060117;28;988;-77
2023/09/25 10:20:48;;;;;;;;;;;;;;;22.60;30.20;98252.03;5077020;28;929;-77
2023/09/25 10:23:31;;;;;;;;;;;;;;;22.47;30.38;98245.47;5076920;28;934;-77
2023/09/25 10:26:02;;;;;;;;;;;;;;;22.32;30.58;98260.03;5076741;28;1890;-77
2023/09/25 10:28:37;;;;;;;;;;;;;;;22.52;30.14;98259.13;5076852;28;996;-77
2023/09/25 10:31:03;;;;;;;;;;;;;;;22.53;30.10;98263.56;5075454;28;1146;-77
2023/09/25 10:33:29;;;;;;;;;;;;;;;22.63;29.96;98236.94;5092593;28;964;-77
2023/09/25 10:35:57;;;;;;;;;;;;;;;22.73;29.69;98252.88;5058952;28;1118;-77
2023/09/25 10:38:26;;;;;;;;;;;;;;;22.48;30.21;98252.75;5092576;28;1054;-77
2023/09/25 10:40:54;;;;;;;;;;;;;;;22.61;30.08;98256.47;5074955;28;1103;-77
2023/09/25 10:43:20;;;;;;;;;;;;;;;22.58;30.06;98252.47;5075527;28;1228;-77
2023/09/25 10:45:46;;;;;;;;;;;;;;;22.52;30.19;98254.25;5092265;28;1963;-77
2023/09/25 10:48:11;;;;;;;;;;;;;;;22.47;30.05;98251.16;5092007;28;996;-77
2023/09/25 10:50:37;;;;;;;;;;;;;;;22.33;30.31;98255.97;5058571;28;1377;-77
2023/09/25 10:53:12;;;;;;;;;;;;;;;22.51;30.13;98260.38;5092202;28;996;-77
2023/09/25 10:55:38;;;;;;;;;;;;;;;22.46;30.12;98252.41;5075192;28;1135;-77
2023/09/25 10:58:04;;;;;;;;;;;;;;;22.42;30.09;98243.97;5074887;28;1042;-77
2023/09/25 11:00:30;;;;;;;;;;;;;;;22.20;30.58;98242.94;5058110;28;1114;-77
2023/09/25 11:02:56;;;;;;;;;;;;;;;22.29;30.39;98241.09;5107275;28;957;-77
2023/09/25 11:05:22;;;;;;;;;;;;;;;22.31;30.25;98266.16;5075762;28;2009;-77
2023/09/25 11:07:47;;;;;;;;;;;;;;;22.54;30.08;98256.66;5075771;28;943;-77
2023/09/25 11:10:13;;;;;;;;;;;;;;;22.62;30.02;98243.88;5075898;28;831;-77
2023/09/25 11:12:39;;;;;;;;;;;;;;;22.73;29.45;98255.72;5077431;28;980;-78
2023/09/25 11:15:16;;;;;;;;;;;;;;;22.52;29.80;98242.09;5059298;28;867;-78
2023/09/25 11:17:43;;;;;;;;;;;;;;;22.51;30.08;98240.53;5075992;28;1039;-78
2023/09/25 11:20:12;;;;;;;;;;;;;;;22.38;30.07;98248.16;5041974;28;1066;-78
2023/09/25 11:22:39;;;;;;;;;;;;;;;22.40;30.02;98246.47;5074764;28;1155;-78
2023/09/25 11:25:07;;;;;;;;;;;;;;;22.75;29.56;98258.91;5058334;28;1185;-78
2023/09/25 11:27:32;;;;;;;;;;;;;;;22.39;30.25;98249.75;5074306;28;1981;-78
2023/09/25 11:29:58;;;;;;;;;;;;;;;22.54;29.97;98242.47;5041299;28;962;-78
2023/09/25 11:32:23;;;;;;;;;;;;;;;22.53;29.97;98249.38;5071843;28;924;-78
2023/09/25 11:34:49;;;;;;;;;;;;;;;22.30;30.22;98253.22;5074351;28;985;-78
2023/09/25 11:37:20;;;;;;;;;;;;;;;22.48;30.03;98269.75;5057710;28;926;-78
2023/09/25 11:39:46;;;;;;;;;;;;;;;22.16;30.54;98247.91;5074269;28;1077;-78
2023/09/25 11:42:11;;;;;;;;;;;;;;;22.22;30.59;98249.75;5062682;28;1587;-78
2023/09/25 11:44:37;;;;;;;;;;;;;;;22.31;30.14;98249.94;5062327;28;1652;-78
2023/09/25 11:47:03;;;;;;;;;;;;;;;22.59;29.91;98244.78;5062428;28;2055;-78
2023/09/25 11:49:29;;;;;;;;;;;;;;;22.50;29.91;98233.25;5064433;28;1482;-78
2023/09/25 11:51:54;;;;;;;;;;;;;;;22.44;29.86;98240.72;5068297;28;1508;-78
2023/09/25 11:54:20;;;;;;;;;;;;;;;22.58;29.83;98235.44;5066324;28;1760;-77
2023/09/25 11:56:45;;;;;;;;;;;;;;;22.38;30.13;98242.47;5076374;28;1325;-78
2023/09/25 11:59:15;;;;;;;;;;;;;;;22.39;30.31;98244.88;5076391;28;1050;-78
2023/09/25 12:01:41;;;;;;;;;;;;;;;22.60;29.72;98246.38;5075978;28;1174;-78
2023/09/25 12:04:08;;;;;;;;;;;;;;;22.43;29.95;98233.44;5091652;28;962;-77
2023/09/25 12:06:34;;;;;;;;;;;;;;;22.27;30.40;98245.59;5108835;28;1988;-79
2023/09/25 12:09:10;;;;;;;;;;;;;;;22.35;30.16;98244.97;5076342;28;870;-78
2023/09/25 12:11:36;;;;;;;;;;;;;;;22.52;29.87;98242.09;5075865;28;991;-78
2023/09/25 12:14:01;;;;;;;;;;;;;;;22.48;30.02;98241.41;5076132;28;937;-79
2023/09/25 12:16:27;;;;;;;;;;;;;;;22.21;30.26;98238.88;5108776;28;928;-78
2023/09/25 12:18:56;;;;;;;;;;;;;;;22.34;30.31;98260.41;5108739;28;905;-78
2023/09/25 12:21:21;;;;;;;;;;;;;;;22.34;30.02;98259.59;5074892;28;1527;-78
2023/09/25 12:23:47;;;;;;;;;;;;;;;22.50;30.00;98250.28;5075762;28;1473;-78
2023/09/25 12:26:12;;;;;;;;;;;;;;;22.22;30.15;98246.91;5074716;28;1910;-78
2023/09/25 12:28:38;;;;;;;;;;;;;;;22.49;29.79;98255.16;5057781;28;1485;-78
2023/09/25 12:31:03;;;;;;;;;;;;;;;22.13;30.60;98258.09;5075002;28;1180;-78
2023/09/25 12:33:30;;;;;;;;;;;;;;;22.28;30.14;98262.19;5074485;28;1516;-78
2023/09/25 12:35:55;;;;;;;;;;;;;;;22.27;30.03;98252.06;5075793;28;1657;-78
2023/09/25 12:38:21;;;;;;;;;;;;;;;22.33;30.13;98263.69;5080536;28;1482;-78
2023/09/25 12:40:46;;;;;;;;;;;;;;;22.53;29.68;98263.56;5061242;28;1645;-78
2023/09/25 12:43:12;;;;;;;;;;;;;;;22.66;29.36;98261.59;5079482;28;1488;-78
2023/09/25 12:45:38;;;;;;;;;;;;;;;22.47;29.78;98268.97;5075710;28;1989;-78
2023/09/25 12:48:04;;;;;;;;;;;;;;;22.40;29.59;98262.69;5052862;28;1617;-79
2023/09/25 12:50:29;;;;;;;;;;;;;;;22.56;29.57;98276.84;5052747;28;1571;-78
2023/09/25 12:52:55;;;;;;;;;;;;;;;22.36;29.79;98269.25;5036034;28;1670;-77
2023/09/25 12:55:20;;;;;;;;;;;;;;;22.39;29.96;98261.91;5053094;28;1654;-77